createdAt,value
2024-01-30T00:00:49.344Z,0.86
2024-01-30T00:06:12.287Z,0.70
2024-01-30T00:11:14.040Z,0.77
2024-01-30T00:16:23.156Z,0.68
2024-01-30T00:21:25.685Z,0.41
2024-01-30T00:26:27.536Z,0.46
2024-01-30T00:31:30.122Z,0.48
2024-01-30T00:36:32.109Z,0.52
2024-01-30T00:41:33.817Z,0.67
2024-01-30T00:46:35.684Z,0.57
2024-01-30T00:51:37.547Z,0.46
2024-01-30T00:56:39.559Z,0.40
2024-01-30T01:01:43.489Z,0.43
2024-01-30T01:06:45.712Z,0.48
2024-01-30T01:11:48.389Z,0.53
2024-01-30T01:16:52.796Z,0.46
2024-01-30T01:21:54.743Z,0.44
2024-01-30T01:26:57.851Z,0.48
2024-01-30T01:31:59.740Z,0.39
2024-01-30T01:37:01.647Z,0.36
2024-01-30T01:42:03.868Z,0.23
2024-01-30T01:47:05.732Z,0.12
2024-01-30T01:52:07.782Z,0.10
2024-01-30T01:57:09.701Z,0.11
2024-01-30T02:02:12.661Z,0.13
2024-01-30T02:07:14.661Z,0.03
2024-01-30T02:12:16.595Z,0.09
2024-01-30T02:17:18.486Z,0.10
2024-01-30T02:22:21.649Z,0.13
2024-01-30T02:27:23.751Z,-0.02
2024-01-30T02:32:25.618Z,-0.10
2024-01-30T02:37:27.514Z,-0.26
2024-01-30T02:42:29.395Z,-0.28
2024-01-30T02:47:31.303Z,-0.30
2024-01-30T02:52:33.302Z,-0.35
2024-01-30T02:57:35.136Z,-0.33
2024-01-30T03:02:39.062Z,-0.29
2024-01-30T03:07:41.126Z,-0.21
2024-01-30T03:12:43.013Z,-0.19
2024-01-30T03:17:45.054Z,-0.28
2024-01-30T03:22:46.870Z,-0.44
2024-01-30T03:27:48.660Z,-0.48
2024-01-30T03:32:50.946Z,-0.92
2024-01-30T03:37:52.845Z,-0.74
2024-01-30T03:42:54.697Z,-0.81
2024-01-30T03:47:56.523Z,-0.93
2024-01-30T03:52:58.487Z,-0.73
2024-01-30T03:58:00.359Z,-0.61
2024-01-30T04:03:02.446Z,-0.62
2024-01-30T04:08:04.741Z,-0.66
2024-01-30T04:13:08.144Z,-0.84
2024-01-30T04:18:11.882Z,-0.77
2024-01-30T04:23:13.662Z,-0.79
2024-01-30T04:28:15.584Z,-0.81
2024-01-30T04:33:19.008Z,-0.97
2024-01-30T04:38:20.758Z,-1.02
2024-01-30T04:43:22.502Z,-0.86
2024-01-30T04:48:24.572Z,-0.93
2024-01-30T04:53:26.298Z,-0.95
2024-01-30T04:58:28.141Z,-0.94
2024-01-30T05:03:34.434Z,-1.14
2024-01-30T05:08:37.446Z,-1.19
2024-01-30T05:13:42.085Z,-1.10
2024-01-30T05:18:44.031Z,-0.93
2024-01-30T05:23:45.986Z,-0.98
2024-01-30T05:28:48.755Z,-0.93
2024-01-30T05:33:50.799Z,-1.26
2024-01-30T05:38:52.834Z,-1.17
2024-01-30T05:43:54.872Z,-1.10
2024-01-30T05:48:56.685Z,-1.34
2024-01-30T05:53:58.548Z,-1.21
2024-01-30T05:59:00.420Z,-1.04
2024-01-30T06:04:02.608Z,-1.01
2024-01-30T06:09:04.580Z,-1.04
2024-01-30T06:14:09.658Z,-0.98
2024-01-30T06:19:11.534Z,-1.00
2024-01-30T06:24:13.439Z,-1.10
2024-01-30T06:29:19.941Z,-0.94
2024-01-30T06:34:22.345Z,-1.02
2024-01-30T06:39:24.280Z,-0.89
2024-01-30T06:44:26.146Z,-0.83
2024-01-30T06:49:28.136Z,-0.81
2024-01-30T06:54:30.031Z,-1.05
2024-01-30T06:59:32.287Z,-1.07
2024-01-30T07:04:34.346Z,-0.85
2024-01-30T07:09:36.993Z,-0.55
2024-01-30T07:14:38.881Z,-0.36
2024-01-30T07:19:40.737Z,-0.29
2024-01-30T07:24:48.795Z,-0.13
2024-01-30T07:29:50.534Z,0.08
2024-01-30T07:35:02.500Z,0.24
2024-01-30T07:40:09.692Z,0.35
2024-01-30T07:45:11.619Z,0.38
2024-01-30T07:50:13.588Z,0.59
2024-01-30T07:55:15.422Z,0.95
2024-01-30T08:00:17.935Z,0.82
2024-01-30T08:05:19.926Z,1.38
2024-01-30T08:10:22.070Z,1.77
2024-01-30T08:15:23.996Z,1.76
2024-01-30T08:20:26.207Z,2.00
2024-01-30T08:25:28.055Z,2.36
2024-01-30T08:30:30.028Z,2.74
2024-01-30T08:35:34.173Z,2.58
2024-01-30T08:40:36.250Z,2.84
2024-01-30T08:45:38.215Z,3.29
2024-01-30T08:50:39.987Z,3.88
2024-01-30T08:55:41.771Z,3.91
2024-01-30T09:00:43.649Z,4.32
2024-01-30T09:05:45.550Z,4.08
2024-01-30T09:10:47.529Z,4.26
2024-01-30T09:15:49.653Z,4.67
2024-01-30T09:20:51.583Z,4.78
2024-01-30T09:25:53.431Z,5.15
2024-01-30T09:30:55.435Z,5.87
2024-01-30T09:35:57.344Z,6.06
2024-01-30T09:41:02.186Z,6.41
2024-01-30T09:46:04.352Z,6.37
2024-01-30T09:51:06.190Z,6.69
2024-01-30T09:56:08.457Z,6.62
2024-01-30T10:01:11.180Z,6.90
2024-01-30T10:06:14.499Z,6.97
2024-01-30T10:11:16.450Z,7.16
2024-01-30T10:16:18.385Z,7.09
2024-01-30T10:21:20.344Z,7.60
2024-01-30T10:26:22.111Z,7.70
2024-01-30T10:31:24.999Z,7.72
2024-01-30T10:36:30.268Z,7.89
2024-01-30T10:41:34.407Z,7.36
2024-01-30T10:46:38.981Z,7.50
2024-01-30T10:51:41.620Z,7.75
2024-01-30T10:56:43.614Z,7.55
2024-01-30T11:01:46.155Z,7.56
2024-01-30T11:06:50.099Z,7.62
2024-01-30T11:12:02.449Z,7.74
2024-01-30T11:17:04.584Z,7.51
2024-01-30T11:22:12.540Z,7.61
2024-01-30T11:27:15.792Z,7.86
2024-01-30T11:32:24.725Z,7.93
2024-01-30T11:37:28.159Z,7.92
2024-01-30T11:42:30.913Z,8.26
2024-01-30T11:47:39.495Z,8.35
2024-01-30T11:52:43.805Z,8.54
2024-01-30T11:57:46.044Z,8.59
2024-01-30T12:02:51.961Z,8.64
2024-01-30T12:07:53.980Z,8.72
2024-01-30T12:12:56.436Z,8.81
2024-01-30T12:18:08.884Z,8.94
2024-01-30T12:23:12.792Z,9.02
2024-01-30T12:28:16.469Z,9.00
2024-01-30T12:33:21.552Z,9.07
2024-01-30T12:38:25.199Z,8.93
2024-01-30T12:43:34.979Z,9.37
2024-01-30T12:48:40.464Z,9.47
2024-01-30T12:53:42.347Z,9.66
2024-01-30T12:58:45.350Z,9.70
2024-01-30T13:03:48.409Z,9.85
2024-01-30T13:08:50.318Z,9.75
2024-01-30T13:13:53.594Z,9.73
2024-01-30T13:18:56.212Z,9.87
2024-01-30T13:23:58.240Z,9.95
2024-01-30T13:29:02.236Z,10.02
2024-01-30T13:34:07.024Z,10.07
2024-01-30T13:39:11.341Z,10.06
2024-01-30T13:44:13.292Z,10.09
2024-01-30T13:49:15.171Z,10.13
2024-01-30T13:54:17.286Z,10.15
2024-01-30T13:59:24.248Z,10.13
2024-01-30T14:04:26.190Z,10.32
2024-01-30T14:09:29.574Z,10.07
2024-01-30T14:14:31.400Z,10.03
2024-01-30T14:19:34.749Z,10.03
2024-01-30T14:24:37.987Z,9.93
2024-01-30T14:29:40.067Z,9.83
2024-01-30T14:34:42.327Z,9.90
2024-01-30T14:39:44.403Z,9.87
2024-01-30T14:44:46.132Z,9.77
2024-01-30T14:49:48.097Z,9.58
2024-01-30T14:54:50.140Z,9.36
2024-01-30T14:59:52.083Z,9.09
2024-01-30T15:04:56.508Z,8.56
2024-01-30T15:09:58.431Z,8.24
2024-01-30T15:15:02.055Z,7.79
2024-01-30T15:20:04.817Z,7.31
2024-01-30T15:25:07.250Z,6.74
2024-01-30T15:30:11.997Z,6.72
2024-01-30T15:35:14.045Z,6.71
2024-01-30T15:40:16.393Z,6.41
2024-01-30T15:45:18.209Z,6.30
2024-01-30T15:50:20.170Z,6.04
2024-01-30T15:55:21.978Z,5.73
2024-01-30T16:00:23.964Z,5.45
2024-01-30T16:05:25.753Z,5.30
2024-01-30T16:10:27.810Z,5.30
2024-01-30T16:15:29.678Z,5.19
2024-01-30T16:20:31.642Z,4.98
2024-01-30T16:25:33.677Z,4.81
2024-01-30T16:30:35.562Z,4.60
2024-01-30T16:35:45.531Z,4.27
2024-01-30T16:40:50.525Z,4.22
2024-01-30T16:45:52.344Z,4.14
2024-01-30T16:50:54.161Z,4.12
2024-01-30T16:55:55.957Z,3.99
2024-01-30T17:00:58.341Z,3.84
2024-01-30T17:06:06.087Z,3.75
2024-01-30T17:11:09.591Z,3.64
2024-01-30T17:16:12.353Z,3.47
2024-01-30T17:21:21.154Z,3.37
2024-01-30T17:26:23.099Z,3.28
2024-01-30T17:31:25.789Z,3.21
2024-01-30T17:36:27.601Z,3.27
2024-01-30T17:41:29.462Z,3.25
2024-01-30T17:46:32.094Z,2.96
2024-01-30T17:51:34.180Z,2.90
2024-01-30T17:56:36.728Z,2.94
2024-01-30T18:01:38.709Z,3.01
2024-01-30T18:06:40.613Z,2.99
2024-01-30T18:11:42.555Z,3.06
2024-01-30T18:16:44.526Z,2.98
2024-01-30T18:21:46.475Z,2.95
2024-01-30T18:26:48.342Z,2.91
2024-01-30T18:31:50.520Z,2.76
2024-01-30T18:36:52.674Z,2.62
2024-01-30T18:41:54.866Z,2.70
2024-01-30T18:46:56.735Z,2.60
2024-01-30T18:51:59.958Z,2.64
2024-01-30T18:57:01.906Z,2.48
2024-01-30T19:02:06.968Z,2.36
2024-01-30T19:07:09.457Z,2.40
2024-01-30T19:12:12.351Z,2.27
2024-01-30T19:17:15.325Z,2.59
2024-01-30T19:22:19.414Z,2.63
2024-01-30T19:27:21.301Z,2.59
2024-01-30T19:32:23.658Z,2.52
2024-01-30T19:37:25.857Z,2.42
2024-01-30T19:42:30.122Z,2.42
2024-01-30T19:47:31.886Z,2.38
2024-01-30T19:52:34.708Z,2.18
2024-01-30T19:57:39.408Z,2.14
2024-01-30T20:02:41.708Z,1.97
2024-01-30T20:07:43.641Z,1.87
2024-01-30T20:12:45.611Z,1.92
2024-01-30T20:17:48.332Z,1.82
2024-01-30T20:22:50.139Z,1.83
2024-01-30T20:27:52.086Z,1.71
2024-01-30T20:32:55.549Z,1.73
2024-01-30T20:37:58.187Z,1.60
2024-01-30T20:43:02.497Z,1.73
2024-01-30T20:48:04.936Z,1.70
2024-01-30T20:53:27.202Z,1.79
2024-01-30T20:58:29.167Z,1.85
2024-01-30T21:03:32.477Z,1.75
2024-01-30T21:08:34.411Z,1.76
2024-01-30T21:13:36.860Z,1.76
2024-01-30T21:18:41.537Z,1.72
2024-01-30T21:23:46.400Z,1.75
2024-01-30T21:28:48.400Z,1.74
2024-01-30T21:33:52.342Z,1.69
2024-01-30T21:38:54.372Z,1.82
2024-01-30T21:43:56.148Z,1.94
2024-01-30T21:48:58.001Z,2.11
2024-01-30T21:53:59.960Z,2.18
2024-01-30T21:59:04.788Z,2.36
2024-01-30T22:04:07.290Z,2.46
2024-01-30T22:09:10.247Z,2.39
2024-01-30T22:14:12.069Z,2.42
2024-01-30T22:19:14.320Z,2.43
2024-01-30T22:24:16.163Z,2.43
2024-01-30T22:29:17.954Z,2.48
2024-01-30T22:34:19.900Z,2.44
2024-01-30T22:39:21.745Z,2.51
2024-01-30T22:44:23.792Z,2.33
2024-01-30T22:49:25.856Z,2.14
2024-01-30T22:54:27.754Z,2.10
2024-01-30T22:59:29.614Z,2.00
2024-01-30T23:04:31.538Z,1.67
2024-01-30T23:09:36.136Z,1.75
2024-01-30T23:14:38.023Z,1.83
2024-01-30T23:19:39.988Z,1.86
2024-01-30T23:24:41.780Z,1.65
2024-01-30T23:29:43.580Z,1.66
2024-01-30T23:34:45.411Z,1.68
2024-01-30T23:39:47.158Z,1.64
2024-01-30T23:44:48.949Z,1.57
2024-01-30T23:49:50.966Z,1.62
2024-01-30T23:54:52.708Z,1.59
2024-01-30T23:59:57.358Z,1.60
